• Join FlightAware (Why Join?)
  • Login
  • US Flag 
06:56PM EDT


 

Airport Tracker/Info


-or-


 

Live Flight TrackerFlight Track Log ✈ N906AC ✈ 20-Aug-2014 ✈ KMKE - KOMA

Flight Track Log - Related Links

Times and Time Zones

All times are in EDT time to prevent confusion due to time zone crossing. See the N906AC flight status page for this flight to view local times or setup timezone preferences in your user account.

Time Position Orientation Groundspeed Altitude Reporting Facility
EDT Latitude Longitude Course Direction KTS MPH feet Rate Location/Type
04:51PM 42.9333 -87.9000 203° Southwest 169 194 1,400  Level KMKE
04:52PM 42.8539 -87.9453 203° Southwest 229 264 6,600 3,300 Climbing Chicago Center
04:53PM 42.8500 -88.0322 267° West 242 278 9,900 2,820 Climbing Chicago Center
04:54PM 42.8661 -88.1144 285° West 242 278 12,500 3,000 Climbing Chicago Center
04:55PM 42.8844 -88.2308 282° West 256 295 16,200 2,880 Climbing Chicago Center
04:56PM 42.9036 -88.3300 285° West 264 304 18,500 2,280 Climbing Chicago Center
04:57PM 42.9206 -88.4353 282° West 279 321 21,000 2,340 Climbing Chicago Center
04:58PM 42.9408 -88.5458 284° West 283 326 23,400 2,160 Climbing Chicago Center
05:00PM 42.9439 -88.6597 272° West 298 343 25,500 1,980 Climbing Chicago Center
05:01PM 42.9472 -88.7736 272° West 298 343 27,600 2,160 Climbing Chicago Center
05:02PM 42.9511 -88.9072 272° West 299 344 30,000 1,860 Climbing Chicago Center
05:03PM 42.9544 -89.0247 272° West 307 353 31,500 1,440 Climbing Chicago Center
05:04PM 42.9578 -89.1428 272° West 311 358 33,000 1,440 Climbing Chicago Center
05:05PM 42.9400 -89.2614 258° West 321 369 34,500 1,380 Climbing Chicago Center
05:06PM 42.9131 -89.3803 253° West 326 375 35,900 1,500 Climbing Chicago Center
05:07PM 42.8833 -89.5211 254° West 325 374 37,700 960 Climbing Chicago Center
05:08PM 42.8569 -89.6428 254° West 335 386 38,000 120 Climbing Chicago Center
05:09PM 42.8300 -89.7725 254° West 353 406 38,000  Level Chicago Center
05:10PM 42.8000 -89.9072 253° West 369 425 38,000  Level Chicago Center
05:11PM 42.7711 -90.0406 254° West 369 425 38,000  Level Chicago Center
05:12PM 42.7408 -90.1731 253° West 369 425 38,000  Level Chicago Center
05:13PM 42.7061 -90.3336 254° West 369 425 38,000  Level Chicago Center
05:14PM 42.6764 -90.4669 253° West 369 425 38,000  Level Chicago Center
05:15PM 42.6458 -90.6014 253° West 369 425 38,000  Level Chicago Center
05:16PM 42.6156 -90.7350 253° West 370 426 38,000  Level Chicago Center
05:17PM 42.5850 -90.8703 253° West 370 426 38,000  Level Chicago Center
05:18PM 42.5533 -91.0069 253° West 377 434 38,000  Level Chicago Center
05:19PM 42.5147 -91.1708 252° West 378 435 38,000  Level Chicago Center
05:20PM 42.4833 -91.3067 253° West 378 435 38,000  Level Chicago Center
05:21PM 42.4525 -91.4386 252° West 369 425 38,000  Level Chicago Center
05:22PM 42.4222 -91.5692 253° West 366 421 38,000  Level Chicago Center
05:23PM 42.3908 -91.7003 252° West 366 421 38,000  Level Chicago Center
05:24PM 42.3600 -91.8297 252° West 364 419 38,000  Level Chicago Center
05:25PM 42.3286 -91.9614 252° West 364 419 38,000 -60 Level Chicago Center
05:26PM 42.2917 -92.1175 252° West 364 419 37,900 -300 Descending Chicago Center
05:28PM 42.2603 -92.2475 252° West 364 419 37,400 -540 Descending Chicago Center
05:29PM 42.2294 -92.3753 252° West 363 418 36,800 -600 Descending Chicago Center
05:30PM 42.1975 -92.5050 252° West 362 417 36,200 -420 Descending Chicago Center
05:31PM 42.1653 -92.6347 252° West 365 420 36,000 -120 Descending Chicago Center
05:32PM 42.1317 -92.7700 252° West 377 434 36,000  Level Chicago Center
05:33PM 42.0903 -92.9344 251° West 382 440 36,000  Level Chicago Center
05:33PM 42.0772 -92.9917 253° West 386 444 36,000  Level Minneapolis Center
05:34PM 42.0422 -93.1300 251° West 388 447 36,000  Level Minneapolis Center
05:35PM 42.0022 -93.2972 252° West 389 448 36,000 -600 Level Minneapolis Center
05:36PM 41.9689 -93.4303 251° West 382 440 34,800 -1,500 Descending Minneapolis Center
05:37PM 41.9314 -93.5628 249° West 382 440 32,900 -1,800 Descending Minneapolis Center
05:38PM 41.8967 -93.6997 251° West 389 448 31,100 -1,860 Descending Minneapolis Center
05:39PM 41.8597 -93.8367 250° West 390 449 29,100 -2,100 Descending Minneapolis Center
05:40PM 41.8183 -94.0036 252° West 398 458 26,800 -2,100 Descending Minneapolis Center
05:41PM 41.7806 -94.1456 250° West 404 465 24,800 -1,920 Descending Minneapolis Center
05:43PM 41.7442 -94.2856 251° West 403 464 22,900 -1,860 Descending Minneapolis Center
05:44PM 41.7078 -94.4250 251° West 401 461 21,000 -1,800 Descending Minneapolis Center
05:45PM 41.6703 -94.5578 249° West 386 444 19,200 -1,920 Descending Minneapolis Center
05:46PM 41.6283 -94.7125 250° West 374 430 17,100 -1,740 Descending Minneapolis Center
05:46PM 41.6242 -94.8017 266° West 370 426 16,300 -1,080 Descending Minneapolis Center
05:47PM 41.6053 -94.8572 246° West 360 414 16,000 -960 Descending Minneapolis Center
05:48PM 41.5725 -94.9814 251° West 353 406 15,000 -1,380 Descending Minneapolis Center
05:49PM 41.5275 -95.0861 240° Southwest 358 412 13,200 -1,920 Descending Minneapolis Center
05:50PM 41.5056 -95.2103 257° West 344 396 11,400 -2,040 Descending Minneapolis Center
05:50PM 41.4903 -95.2208 207° Southwest 347 399 11,100 -1,620 Descending Minneapolis Center
05:51PM 41.4753 -95.3169 258° West 295 339 9,800 -1,260 Descending Minneapolis Center
05:51PM 41.4644 -95.3119 161° South 328 377 9,800 -1,500 Level Minneapolis Center
05:52PM 41.4397 -95.4356 255° West 274 315 8,000 -1,620 Descending Minneapolis Center
05:53PM 41.4144 -95.5219 249° West 273 314 6,700 -1,440 Descending Minneapolis Center
05:53PM 41.4067 -95.5217 178° South 282 325 6,500 -1,380 Descending Minneapolis Center
05:54PM 41.3872 -95.6144 254° West 269 310 5,300 -1,260 Descending Minneapolis Center
05:54PM 41.3811 -95.6144 180° South 274 315 5,200 -300 Descending Minneapolis Center
05:55PM 41.3725 -95.7050 263° West 255 293 5,000 -300 Descending Minneapolis Center
05:55PM 41.3719 -95.7083 257° West 272 313 4,900 -840 Descending Minneapolis Center
05:56PM 41.3806 -95.7931 278° West 228 262 4,200 -780 Descending Minneapolis Center
05:56PM 41.3808 -95.7958 278° West 254 292 4,100 -1,140 Descending Minneapolis Center
05:57PM 41.3897 -95.8669 279° West 219 252 3,200 -1,020 Descending Minneapolis Center
05:57PM 41.3903 -95.8753 275° West 237 273 3,100 -240 Descending Minneapolis Center
05:58PM 41.3967 -95.9411 277° West 197 227 3,000 -300 Descending Minneapolis Center
05:58PM 41.3883 -95.9522 225° Southwest 209 241 2,800 -600 Descending Minneapolis Center
05:59PM 41.3594 -95.9508 178° South 162 186 2,400 -900 Descending Minneapolis Center
05:59PM 41.3456 -95.9311 133° Southeast 184 212 1,900 -1,020 Descending Minneapolis Center
06:00PM 41.3261 -95.9186 154° Southeast 156 180 1,500 -780 Descending Minneapolis Center
06:00PM 41.3136 -95.8997 131° Southeast 159 183 1,100 -780 Descending Minneapolis Center
06:02PM 41.3000 -95.8833 156° South  Level FlightAware Approximate